All
Moree Airport (Moree, New South Wales) MRZ Weather
|
Moree, New South Wales (MRZ / YMOR)
Clear skies
Light winds |
|
14 °C |
MRZ Terminal Area Forecast
| Date | Time (AEST) | Flight Rules | Wind Dir. | Speed | Type | Height AGL (ft) | Visibility | Remarks | ||||||
|---|---|---|---|---|---|---|---|---|---|---|---|---|---|---|
| 08-May | 23:00 | VFR | 210° | 8 kt | Clouds and Visibility are OK | >= 6 miles | ||||||||
| 08-May | 22:00 | VFR | 210° | 8 kt | Clouds and Visibility are OK | >= 6 miles | ||||||||
| 08-May | 21:00 | VFR | 210° | 8 kt | Clouds and Visibility are OK | >= 6 miles | ||||||||
| 08-May | 20:00 | VFR | 210° | 8 kt | Clouds and Visibility are OK | >= 6 miles | ||||||||
| 08-May | 19:00 | VFR | 230° | 12 kt | Clouds and Visibility are OK | >= 6 miles | ||||||||
| 08-May | 18:00 | VFR | 230° | 12 kt | Clouds and Visibility are OK | >= 6 miles | ||||||||
Recent MRZ METAR history
| Date | Time (AEST) | Flight Rules | Wind Dir. | Speed | Type | Height AGL (ft) | Visibility | Temp (°C) | Temp (°F) | Dew Point (°C) | Dew Point (°F) | Rel. Humid. | Pressure | Density Altitude | Remarks |
|---|---|---|---|---|---|---|---|---|---|---|---|---|---|---|---|
| 08-May | 18:00 | VFR | 220° | 8 kt | 10000 meters | 14° | 57° | 3° | 37° | 47% | 1022 mb | 321 ft | |||
| 08-May | 17:00 | VFR | 220° | 15 kt | 10000 meters | 17° | 62° | 4° | 39° | 42% | 1021 mb | 711 ft | |||
| 08-May | 16:00 | VFR | 220° | 16 kt | 10000 meters | 18° | 64° | 4° | 39° | 39% | 1021 mb | 831 ft | |||
| 08-May | 15:00 | VFR | 210° | 18 kt | 10000 meters | 18° | 64° | 3° | 37° | 37% | 1021 mb | 831 ft | |||
| 08-May | 14:00 | VFR | 210° | 15 kt | 10000 meters | 18° | 64° | 2° | 35° | 34% | 1021 mb | 831 ft | |||
| 08-May | 13:00 | VFR | 220° | 18 kt | 10000 meters | 17° | 62° | 3° | 37° | 39% | 1022 mb | 681 ft | |||
| 08-May | 12:00 | VFR | 210° | 19 kt | 10000 meters | 17° | 62° | 3° | 37° | 39% | 1023 mb | 652 ft | |||
| 08-May | 11:00 | VFR | 200° | 17 kt | 10000 meters | 15° | 59° | 3° | 37° | 44% | 1023 mb | 412 ft | |||
| 08-May | 10:00 | VFR | 200° | 19 kt | 10000 meters | 13° | 55° | 3° | 37° | 51% | 1024 mb | 142 ft | |||
| 08-May | 09:00 | VFR | 210° | 15 kt | 10000 meters | 11° | 51° | 2° | 35° | 54% | 1025 mb | -127 ft | |||
| 08-May | 08:00 | VFR | 230° | 11 kt | 10000 meters | 7° | 44° | 0° | 32° | 61% | 1025 mb | -607 ft | |||
| 08-May | 07:00 | VFR | 250° | 7 kt | 10000 meters | 3° | 37° | -1° | 30° | 75% | 1024 mb | -1,058 ft | |||
| 08-May | 06:00 | VFR | 260° | 6 kt | 10000 meters | 3° | 37° | -1° | 30° | 75% | 1024 mb | -1,058 ft | |||
| 08-May | 05:00 | VFR | 250° | 7 kt | 10000 meters | 3° | 37° | -1° | 30° | 75% | 1024 mb | -1,058 ft | |||
| 08-May | 04:00 | VFR | 240° | 3 kt | 10000 meters | 3° | 37° | -1° | 30° | 75% | 1024 mb | -1,058 ft | |||
| 08-May | 03:00 | VFR | 230° | 5 kt | 10000 meters | 4° | 39° | -1° | 30° | 70% | 1024 mb | -938 ft | |||
| 08-May | 02:00 | VFR | 190° | 8 kt | 10000 meters | 5° | 41° | -1° | 30° | 65% | 1023 mb | -788 ft | |||
| 08-May | 01:00 | VFR | 180° | 7 kt | 10000 meters | 4° | 39° | -1° | 30° | 70% | 1023 mb | -908 ft | |||
| 08-May | 00:00 | VFR | 190° | 11 kt | 10000 meters | 7° | 44° | -1° | 30° | 57% | 1023 mb | -548 ft | |||
| 07-May | 23:00 | VFR | 210° | 9 kt | 10000 meters | 6° | 42° | -1° | 30° | 61% | 1023 mb | -668 ft | |||
| 07-May | 22:00 | VFR | 220° | 8 kt | 10000 meters | 7° | 44° | -2° | 28° | 53% | 1023 mb | -548 ft | |||
| 07-May | 21:00 | VFR | 210° | 13 kt | 10000 meters | 9° | 48° | -2° | 28° | 46% | 1023 mb | -308 ft | |||
| 07-May | 20:00 | VFR | 210° | 10 kt | 10000 meters | 10° | 50° | -2° | 28° | 43% | 1023 mb | -188 ft | |||
| 07-May | 19:00 | VFR | 210° | 12 kt | 10000 meters | 12° | 53° | -2° | 28° | 38% | 1022 mb | 81 ft |
Login
| Your browser is unsupported. upgrade your browser |
